createdAt,value
2023-01-13T00:04:29.176Z,8.30
2023-01-13T00:09:32.036Z,7.10
2023-01-13T00:14:36.120Z,8.00
2023-01-13T00:19:39.139Z,8.00
2023-01-13T00:24:42.275Z,7.10
2023-01-13T00:29:45.509Z,7.40
2023-01-13T00:34:48.612Z,7.30
2023-01-13T00:39:52.628Z,7.20
2023-01-13T00:44:55.749Z,6.80
2023-01-13T00:49:58.592Z,6.90
2023-01-13T00:55:01.426Z,7.00
2023-01-13T01:00:06.516Z,7.30
2023-01-13T01:05:12.081Z,7.70
2023-01-13T01:10:15.135Z,7.90
2023-01-13T01:15:19.105Z,7.40
2023-01-13T01:20:21.965Z,7.60
2023-01-13T01:25:25.364Z,7.30
2023-01-13T01:30:28.240Z,7.30
2023-01-13T01:35:33.239Z,7.10
2023-01-13T01:40:36.126Z,7.20
2023-01-13T01:45:39.092Z,7.20
2023-01-13T01:50:42.015Z,7.10
2023-01-13T01:55:44.773Z,6.70
2023-01-13T02:00:50.164Z,7.40
2023-01-13T02:05:53.250Z,6.90
2023-01-13T02:10:56.359Z,6.40
2023-01-13T02:16:08.718Z,7.20
2023-01-13T02:21:48.346Z,7.30
2023-01-13T02:27:24.286Z,6.90
2023-01-13T02:32:46.917Z,7.60
2023-01-13T02:37:49.848Z,6.90
2023-01-13T02:43:44.689Z,6.30
2023-01-13T02:48:47.988Z,6.90
2023-01-13T02:53:58.542Z,6.60
2023-01-13T02:59:01.796Z,6.30
2023-01-13T03:04:15.199Z,6.20
2023-01-13T03:09:49.435Z,6.10
2023-01-13T03:15:21.548Z,6.90
2023-01-13T03:20:31.108Z,6.00
2023-01-13T03:25:41.518Z,5.60
2023-01-13T03:30:49.911Z,5.90
2023-01-13T03:35:55.902Z,6.50
2023-01-13T03:41:02.716Z,5.70
2023-01-13T03:46:11.766Z,6.60
2023-01-13T03:51:19.270Z,6.20
2023-01-13T03:56:38.920Z,5.60
2023-01-13T04:02:12.472Z,5.70
2023-01-13T04:07:24.691Z,6.00
2023-01-13T04:12:53.865Z,6.20
2023-01-13T04:18:20.464Z,5.70
2023-01-13T04:23:23.322Z,5.10
2023-01-13T04:28:26.331Z,7.10
2023-01-13T04:33:31.096Z,5.60
2023-01-13T04:38:35.461Z,5.10
2023-01-13T04:43:38.301Z,5.50
2023-01-13T04:48:42.277Z,5.80
2023-01-13T04:53:46.926Z,4.70
2023-01-13T04:58:49.768Z,5.60
2023-01-13T05:03:52.864Z,5.00
2023-01-13T05:08:55.989Z,4.80
2023-01-13T05:14:19.335Z,5.00
2023-01-13T05:19:22.231Z,5.10
2023-01-13T05:24:43.788Z,4.50
2023-01-13T05:29:46.603Z,4.60
2023-01-13T05:34:49.813Z,5.70
2023-01-13T05:40:11.267Z,5.30
2023-01-13T05:45:16.607Z,5.00
2023-01-13T05:50:19.466Z,5.20
2023-01-13T05:55:22.255Z,4.80
2023-01-13T06:00:28.428Z,4.90
2023-01-13T06:05:31.892Z,4.80
2023-01-13T06:10:35.045Z,5.10
2023-01-13T06:15:37.969Z,5.00
2023-01-13T06:20:40.782Z,5.10
2023-01-13T06:26:04.435Z,5.60
2023-01-13T06:31:07.908Z,4.60
2023-01-13T06:36:18.612Z,4.30
2023-01-13T06:41:40.491Z,5.50
2023-01-13T06:46:43.492Z,5.20
2023-01-13T06:51:46.657Z,5.50
2023-01-13T06:56:49.639Z,5.80
2023-01-13T07:01:53.010Z,5.40
2023-01-13T07:06:55.960Z,5.20
2023-01-13T07:11:58.791Z,5.80
2023-01-13T07:17:01.626Z,5.50
2023-01-13T07:22:04.423Z,5.60
2023-01-13T07:27:07.237Z,6.20
2023-01-13T07:32:10.286Z,5.60
2023-01-13T07:37:13.162Z,4.80
2023-01-13T07:42:35.007Z,5.80
2023-01-13T07:47:38.123Z,5.00
2023-01-13T07:52:41.021Z,6.20
2023-01-13T07:57:44.646Z,5.90
2023-01-13T08:02:47.454Z,5.70
2023-01-13T08:07:50.475Z,4.80
2023-01-13T08:13:12.038Z,5.30
2023-01-13T08:18:15.124Z,5.00
2023-01-13T08:23:19.119Z,5.00
2023-01-13T08:28:24.177Z,5.50
2023-01-13T08:33:27.762Z,4.90
2023-01-13T08:38:31.804Z,5.00
2023-01-13T08:43:34.635Z,4.90
2023-01-13T08:48:39.841Z,5.30
2023-01-13T08:53:42.794Z,4.70
2023-01-13T08:58:45.652Z,4.10
2023-01-13T09:03:48.437Z,4.30
2023-01-13T09:08:51.281Z,5.50
2023-01-13T09:13:54.257Z,4.50
2023-01-13T09:19:17.266Z,4.80
2023-01-13T09:24:20.225Z,5.30
2023-01-13T09:29:23.307Z,5.00
2023-01-13T09:34:45.848Z,4.90
2023-01-13T09:39:48.764Z,5.20
2023-01-13T09:45:02.985Z,5.10
2023-01-13T09:50:15.100Z,5.30
2023-01-13T09:55:37.457Z,5.50
2023-01-13T10:01:02.474Z,5.30
2023-01-13T10:06:20.256Z,5.50
2023-01-13T10:11:44.282Z,5.40
2023-01-13T10:17:15.600Z,5.80
2023-01-13T10:22:33.798Z,5.70
2023-01-13T10:27:40.888Z,6.30
2023-01-13T10:32:46.562Z,5.10
2023-01-13T10:37:57.083Z,5.00
2023-01-13T10:43:06.790Z,5.60
2023-01-13T10:48:14.723Z,5.10
2023-01-13T10:53:24.880Z,5.60
2023-01-13T10:58:28.315Z,6.00
2023-01-13T11:03:43.090Z,5.30
2023-01-13T11:08:49.368Z,5.40
2023-01-13T11:14:13.203Z,5.20
2023-01-13T11:19:17.303Z,6.00
2023-01-13T11:24:38.091Z,5.00
2023-01-13T11:30:10.425Z,5.30
2023-01-13T11:35:18.844Z,5.00
2023-01-13T11:40:36.948Z,4.20
2023-01-13T11:45:51.088Z,4.70
2023-01-13T11:51:15.155Z,5.00
2023-01-13T11:56:28.363Z,4.60
2023-01-13T12:02:04.620Z,5.60
2023-01-13T12:07:28.451Z,5.30
2023-01-13T12:12:45.549Z,5.20
2023-01-13T12:18:30.208Z,5.40
2023-01-13T12:23:53.066Z,5.60
2023-01-13T12:29:01.051Z,5.20
2023-01-13T12:34:18.270Z,5.50
2023-01-13T12:39:42.057Z,5.00
2023-01-13T12:45:09.901Z,5.10
2023-01-13T12:50:21.830Z,5.10
2023-01-13T12:55:44.081Z,4.80
2023-01-13T13:01:01.373Z,5.30
2023-01-13T13:06:19.970Z,5.20
2023-01-13T13:11:55.691Z,4.40
2023-01-13T13:17:01.213Z,5.10
2023-01-13T13:22:13.410Z,5.20
2023-01-13T13:27:36.961Z,4.90
2023-01-13T13:33:49.559Z,5.10
2023-01-13T13:39:41.248Z,5.30
2023-01-13T13:45:05.185Z,4.60
2023-01-13T13:50:14.745Z,5.40
2023-01-13T13:55:23.749Z,5.40
2023-01-13T14:00:35.599Z,4.90
2023-01-13T14:05:38.517Z,4.70
2023-01-13T14:10:43.352Z,5.50
2023-01-13T14:15:49.147Z,5.60
2023-01-13T14:20:59.555Z,5.50
2023-01-13T14:26:13.000Z,5.10
2023-01-13T14:31:15.895Z,5.50
2023-01-13T14:36:24.621Z,5.50
2023-01-13T14:41:28.463Z,5.70
2023-01-13T14:46:42.399Z,6.30
2023-01-13T14:51:45.315Z,7.20
2023-01-13T14:56:53.907Z,7.40
2023-01-13T15:01:58.044Z,7.90
2023-01-13T15:07:01.303Z,7.90
2023-01-13T15:12:23.440Z,9.40
2023-01-13T15:17:28.796Z,10.10
2023-01-13T15:22:31.629Z,11.20
2023-01-13T15:27:34.395Z,11.20
2023-01-13T15:32:38.657Z,10.30
2023-01-13T15:37:42.879Z,9.60
2023-01-13T15:43:04.458Z,9.30
2023-01-13T15:48:07.717Z,11.00
2023-01-13T15:53:14.511Z,9.90
2023-01-13T15:58:18.244Z,9.40
2023-01-13T16:03:21.148Z,9.60
2023-01-13T16:08:24.037Z,10.30
2023-01-13T16:13:26.925Z,10.10
2023-01-13T16:18:29.875Z,9.40
2023-01-13T16:23:32.639Z,9.10
2023-01-13T16:28:35.955Z,11.40
2023-01-13T16:33:39.094Z,9.50
2023-01-13T16:38:42.272Z,9.10
2023-01-13T16:43:45.966Z,9.70
2023-01-13T16:48:52.032Z,10.40
2023-01-13T16:53:54.887Z,10.20
2023-01-13T16:59:18.845Z,8.80
2023-01-13T17:04:23.537Z,8.80
2023-01-13T17:09:30.213Z,8.90
2023-01-13T17:14:33.085Z,9.30
2023-01-13T17:19:35.938Z,9.70
2023-01-13T17:24:38.816Z,9.20
2023-01-13T17:29:41.829Z,10.10
2023-01-13T17:34:46.126Z,10.50
2023-01-13T17:39:51.064Z,11.20
2023-01-13T17:44:55.223Z,10.90
2023-01-13T17:49:58.060Z,10.70
2023-01-13T17:55:01.015Z,10.70
2023-01-13T18:00:05.109Z,10.20
2023-01-13T18:05:08.862Z,11.50
2023-01-13T18:10:12.067Z,10.60
2023-01-13T18:15:14.874Z,16.90
2023-01-13T18:20:37.020Z,12.40
2023-01-13T18:25:58.488Z,11.10
2023-01-13T18:31:01.324Z,10.70
2023-01-13T18:36:08.417Z,9.90
2023-01-13T18:41:29.979Z,10.10
2023-01-13T18:46:33.007Z,11.00
2023-01-13T18:51:36.493Z,11.00
2023-01-13T18:56:42.544Z,10.40
2023-01-13T19:01:45.532Z,11.70
2023-01-13T19:06:51.510Z,14.30
2023-01-13T19:11:58.394Z,13.10
2023-01-13T19:17:08.840Z,12.90
2023-01-13T19:22:13.141Z,14.20
2023-01-13T19:27:17.274Z,12.80
2023-01-13T19:32:21.177Z,11.00
2023-01-13T19:37:30.064Z,10.80
2023-01-13T19:42:51.923Z,10.80
2023-01-13T19:47:57.073Z,10.70
2023-01-13T19:53:00.101Z,9.90
2023-01-13T19:58:04.069Z,9.00
2023-01-13T20:03:10.919Z,10.30
2023-01-13T20:08:13.782Z,10.30
2023-01-13T20:13:16.677Z,8.60
2023-01-13T20:18:21.975Z,8.80
2023-01-13T20:23:24.846Z,9.10
2023-01-13T20:28:27.785Z,8.30
2023-01-13T20:33:30.653Z,7.50
2023-01-13T20:38:39.697Z,7.30
2023-01-13T20:43:42.657Z,6.70
2023-01-13T20:48:45.699Z,6.40
2023-01-13T20:53:48.565Z,9.40
2023-01-13T20:58:51.932Z,12.10
2023-01-13T21:03:59.043Z,6.20
2023-01-13T21:09:02.127Z,6.00
2023-01-13T21:14:23.304Z,6.50
2023-01-13T21:19:26.272Z,6.90
2023-01-13T21:24:29.233Z,5.90
2023-01-13T21:29:32.104Z,6.50
2023-01-13T21:34:35.530Z,6.10
2023-01-13T21:39:38.410Z,5.40
2023-01-13T21:44:59.977Z,5.10
2023-01-13T21:50:08.007Z,4.90
2023-01-13T21:55:20.360Z,4.80
2023-01-13T22:00:28.135Z,4.40
2023-01-13T22:05:31.441Z,4.00
2023-01-13T22:10:34.812Z,4.60
2023-01-13T22:15:37.858Z,4.20
2023-01-13T22:20:42.121Z,4.30
2023-01-13T22:25:45.292Z,8.10
2023-01-13T22:30:49.939Z,5.30
2023-01-13T22:35:57.295Z,4.60
2023-01-13T22:41:07.289Z,3.90
2023-01-13T22:46:11.811Z,3.90
2023-01-13T22:51:16.123Z,4.20
2023-01-13T22:56:22.074Z,3.80
2023-01-13T23:01:26.715Z,3.60
2023-01-13T23:06:32.392Z,4.30
2023-01-13T23:11:35.609Z,4.30
2023-01-13T23:16:39.898Z,4.20
2023-01-13T23:21:42.814Z,5.10
2023-01-13T23:26:45.698Z,5.10
2023-01-13T23:31:49.708Z,5.30
2023-01-13T23:36:52.802Z,6.30
2023-01-13T23:41:55.964Z,5.80
2023-01-13T23:46:58.790Z,6.30
2023-01-13T23:52:01.666Z,6.30
2023-01-13T23:57:05.729Z,6.30
